EW9254 Weather Reports


time (UTC)temp
C
wind
direction
speed
KPH
gust
KPH
rain 1hr
cm
rain 24hr
cm
rain mn
cm
humidity
%
barometer
mb
20190423061632 20 141 6.4 12.9 0.00 0.05 0.05 50 1021.5
20190423060123 20 167 6.4 12.9 0.00 0.05 0.05 48 1021.5
20190423054629 20 173 6.4 14.5 0.00 0.05 0.05 49 1021.5
20190423053130 20 178 9.7 16.1 0.00 0.05 0.05 50 1021.5
20190423051605 19 164 11.3 19.3 0.00 0.05 0.05 50 1021.6
20190423050131 19 153 14.5 22.5 0.00 0.05 0.05 51 1021.6
20190423044624 19 155 11.3 24.1 0.00 0.05 0.05 52 1021.6
20190423043047 19 173 9.7 19.3 0.00 0.05 0.05 54 1021.6
20190423041609 18 134 11.3 19.3 0.00 0.05 0.05 57 1021.8
20190423040043 18 141 8.0 17.7 0.00 0.05 0.05 64 1022.0
20190423034606 18 180 9.7 19.3 0.00 0.05 0.05 65 1022.3
20190423033102 17 177 6.4 16.1 0.00 0.05 0.05 68 1022.5
20190423031541 17 165 3.2 19.3 0.00 0.05 0.05 74 1022.6
20190423030023 16 174 8.0 16.1 0.00 0.05 0.05 78 1022.9
20190423024516 15 186 6.4 12.9 0.00 0.05 0.05 84 1023.3
20190423023014 14 178 3.2 12.9 0.00 0.05 0.05 86 1023.5
20190423021513 14 164 4.8 11.3 0.00 0.05 0.05 87 1023.7
20190423020012 13 180 8.0 17.7 0.00 0.05 0.05 88 1023.8
20190423014513 13 192 6.4 16.1 0.00 0.05 0.05 92 1024.0
20190423013011 13 172 4.8 16.1 0.03 0.05 0.05 92 1024.1
20190423011509 13 182 3.2 11.3 0.05 0.05 0.05 93 1024.2
20190423010025 13 149 6.4 12.9 0.05 0.05 0.05 92 1024.1
20190423004505 13 168 6.4 9.7 0.05 0.05 0.05 92 1024.3
20190423003004 12 155 6.4 11.3 0.05 0.05 0.05 91 1024.2
20190423001726 12 159 3.2 11.3 0.03 0.03 0.03 89 1024.2
20190423000204 12 167 6.4 12.9 0.03 0.03 0.03 87 1024.3
20190422234641 12 161 8.0 12.9 0.00 0.00 0.00 83 1024.4
20190422233213 12 153 9.7 19.3 0.00 0.00 0.00 78 1024.4
20190422231634 13 144 8.0 16.1 0.00 0.00 0.00 76 1024.4
20190422230114 13 180 9.7 16.1 0.00 0.00 0.00 73 1024.3
20190422224638 13 160 6.4 9.7 0.00 0.00 0.00 71 1024.2
20190422223131 14 169 8.0 16.1 0.00 0.00 0.00 67 1024.1
20190422221637 13 148 6.4 14.5 0.00 0.00 0.00 64 1023.8
20190422220124 13 165 6.4 14.5 0.00 0.00 0.00 64 1023.6
20190422214611 13 155 4.8 12.9 0.00 0.00 0.00 63 1023.4
20190422213113 13 140 8.0 12.9 0.00 0.00 0.00 63 1023.2
20190422211604 13 169 6.4 12.9 0.00 0.00 0.00 62 1023.1
20190422210141 13 173 4.8 11.3 0.00 0.00 0.00 62 1023.1
20190422204549 13 188 4.8 9.7 0.00 0.00 0.00 62 1023.0
20190422203103 13 178 4.8 12.9 0.00 0.00 0.00 62 1022.9
20190422201556 13 178 4.8 9.7 0.00 0.00 0.00 62 1022.7
20190422200105 13 180 3.2 8.0 0.00 0.00 0.00 61 1022.6
20190422194523 13 186 4.8 9.7 0.00 0.00 0.00 61 1022.5
20190422193056 13 182 4.8 14.5 0.00 0.00 0.00 61 1022.5
20190422191529 13 200 4.8 11.3 0.00 0.00 0.00 60 1022.5
20190422190055 13 203 4.8 11.3 0.00 0.00 0.00 59 1022.5
20190422184532 13 206 8.0 14.5 0.00 0.00 0.00 59 1022.2
20190422183013 13 198 6.4 12.9 0.00 0.00 0.00 58 1022.0
20190422181538 13 186 3.2 9.7 0.00 0.00 0.00 55 1022.0
20190422180023 13 195 4.8 11.3 0.00 0.00 0.00 54 1021.9
20190422174503 14 197 6.4 12.9 0.00 0.00 0.00 53 1021.7
20190422173202 14 197 4.8 8.0 0.00 0.00 0.00 52 1021.5
20190422171757 15 195 3.2 8.0 0.00 0.00 0.00 51 1021.4
20190422170139 15 196 3.2 9.7 0.00 0.00 0.00 51 1021.3
20190422164722 15 188 3.2 8.0 0.00 0.00 0.00 51 1021.4
20190422163157 16 184 3.2 6.4 0.00 0.00 0.00 50 1021.5
20190422161617 16 185 3.2 6.4 0.00 0.00 0.00 49 1021.9
20190422160141 16 186 3.2 6.4 0.00 0.00 0.00 48 1022.0
20190422154644 17 178 3.2 8.0 0.00 0.00 0.00 48 1022.0
20190422153137 17 177 3.2 8.0 0.00 0.00 0.00 47 1022.3
20190422151613 17 151 3.2 11.3 0.00 0.00 0.00 46 1022.4
20190422150111 17 184 4.8 12.9 0.00 0.00 0.00 46 1022.4
20190422144641 17 182 4.8 12.9 0.00 0.00 0.00 46 1022.4
20190422143034 17 188 4.8 11.3 0.00 0.00 0.00 46 1022.6
20190422141610 17 179 4.8 12.9 0.00 0.00 0.00 46 1022.7
20190422140054 17 183 4.8 11.3 0.00 0.00 0.00 45 1022.8
20190422134606 17 186 6.4 12.9 0.00 0.00 0.00 45 1022.9
20190422133054 17 176 6.4 12.9 0.00 0.00 0.00 45 1022.9
20190422131606 17 119 9.7 19.3 0.00 0.00 0.00 45 1022.9
20190422130040 17 169 6.4 16.1 0.00 0.00 0.00 45 1022.9
20190422124547 17 161 8.0 17.7 0.00 0.00 0.00 45 1023.0
20190422123048 17 157 6.4 16.1 0.00 0.00 0.00 45 1023.0
20190422121542 17 182 6.4 12.9 0.00 0.00 0.00 45 1023.2
20190422120106 17 180 4.8 9.7 0.00 0.00 0.00 46 1023.2
20190422114652 17 200 3.2 8.0 0.00 0.00 0.00 46 1023.4
20190422113041 17 200 1.6 8.0 0.00 0.00 0.00 46 1023.4
20190422111600 17 200 3.2 6.4 0.00 0.00 0.00 45 1023.3
20190422110054 16 200 3.2 6.4 0.00 0.00 0.00 46 1023.1
20190422104546 16 200 3.2 6.4 0.00 0.00 0.00 46 1022.9
20190422103030 16 200 3.2 9.7 0.00 0.00 0.00 47 1022.8
20190422101524 16 203 3.2 9.7 0.00 0.00 0.00 47 1022.7
20190422100059 16 205 3.2 8.0 0.00 0.00 0.00 48 1022.7
20190422094523 16 213 3.2 6.4 0.00 0.00 0.00 47 1022.5
20190422093016 16 192 1.6 4.8 0.00 0.00 0.00 46 1022.0
20190422091530 17 192 1.6 4.8 0.00 0.00 0.00 45 1021.8
20190422090016 17 192 1.6 6.4 0.00 0.00 0.00 44 1021.7
20190422084537 18 192 3.2 9.7 0.00 0.00 0.00 43 1021.6
20190422083032 18 183 4.8 11.3 0.00 0.00 0.00 43 1021.5
20190422081519 18 170 3.2 9.7 0.00 0.00 0.00 43 1021.2
20190422080017 19 162 6.4 12.9 0.00 0.00 0.00 42 1021.1
20190422074515 19 153 8.0 17.7 0.00 0.00 0.00 42 1021.0
20190422073023 20 167 11.3 19.3 0.00 0.00 0.00 41 1021.1
20190422071514 20 163 8.0 14.5 0.00 0.00 0.00 42 1021.1
20190422070011 20 162 8.0 17.7 0.00 0.00 0.00 42 1021.3
20190422064504 20 186 8.0 16.1 0.00 0.00 0.00 41 1021.1
20190422063003 20 147 6.4 17.7 0.00 0.00 0.00 41 1021.1